• Join FlightAware (Why Join?)
  • Login
  • US Flag 
10:09AM EST


 

Airport Tracker/Info


-or-


 

Live Flight TrackerFlight Track Log ✈ KAP305 ✈ 18-Jun-2013 ✈ KBOS - KACK

Flight Track Log - Related Links

Times and Time Zones

All times are in EDT time to prevent confusion due to time zone crossing. See the KAP305 flight status page for this flight to view local times or setup timezone preferences in your user account.

Time Position Orientation Groundspeed Altitude Reporting Facility
EDT Latitude Longitude Course Direction KTS MPH feet Rate Location/Type
12:46PM 42.3500 -70.9833 90° East 93 107 500  Level KA90
12:46PM 42.3500 -70.9667 90° East 117 135 1,100 600 Climbing KA90
12:47PM 42.3167 -70.9167 132° Southeast 124 143 1,600 540 Climbing KA90
12:48PM 42.3000 -70.8833 124° Southeast 119 137 2,200 600 Climbing KA90
12:49PM 42.2833 -70.8500 124° Southeast 118 136 2,800 600 Climbing KA90
12:50PM 42.2500 -70.8333 160° South 121 139 3,400 600 Climbing KA90
12:51PM 42.2333 -70.8000 124° Southeast 118 136 4,100 600 Climbing KA90
12:52PM 42.2000 -70.7833 160° South 116 133 4,600 420 Climbing KA90
12:54PM 42.1667 -70.7500 143° Southeast 123 142 5,000 180 Climbing KA90
12:55PM 42.1333 -70.7333 160° South 153 176 5,000  Level KA90
12:55PM 42.1000 -70.7000 143° Southeast 160 184 5,000  Level KA90
12:56PM 42.0667 -70.6667 143° Southeast 157 181 5,000  Level KA90
12:58PM 42.0213 -70.6324 151° Southeast  Level Estimated
01:05PM 41.7703 -70.4437 151° Southeast  Level Estimated
01:06PM 41.7344 -70.4169 151° Southeast  Level Estimated
01:07PM 41.6985 -70.3901 151° Southeast  Level Estimated
01:08PM 41.6626 -70.3633 151° Southeast  Level Estimated
01:09PM 41.6267 -70.3366 151° Southeast  Level Estimated
01:10PM 41.5908 -70.3099 151° Southeast  Level Estimated
01:11PM 41.5549 -70.2832 151° Southeast  Level Estimated
01:12PM 41.5190 -70.2565 151° Southeast  Level Estimated
01:13PM 41.4830 -70.2299 151° Southeast  Level Estimated
01:14PM 41.4471 -70.2033 151° Southeast  Level Estimated
01:15PM 41.4112 -70.1767 151° Southeast  Level Estimated
01:16PM 41.3752 -70.1502 151° Southeast  Level Estimated
01:17PM 41.3392 -70.1237 151° Southeast  Level Estimated
01:18PM 41.3033 -70.0972 151° Southeast  Level Estimated
01:19PM 41.2673 -70.0707 151° Southeast  Level Estimated
01:20PM 41.2531 -70.0603 151° Southeast  Level Estimated
01:21PM 41.2531 -70.0603 72° East  Level Estimated
01:22PM 41.2531 -70.0603 72° East  Level Estimated
01:23PM 41.2531 -70.0603 72° East  Level Estimated
01:24PM 41.2531 -70.0603 72° East  Level Estimated
01:25PM 41.2531 -70.0603 72° East  Level Estimated
01:26PM 41.2531 -70.0603 72° East  Level Estimated
01:27PM 41.2531 -70.0603 72° East  Level Estimated